sensor_id;sensor_type;location;lat;lon;timestamp;pressure;altitude;pressure_sealevel;temperature;humidity
34979;BME280;21185;50.978;13.720;2022-07-04T00:03:47;98196.47;;;24.19;46.44
34979;BME280;21185;50.978;13.720;2022-07-04T00:08:49;98197.81;;;24.21;46.48
34979;BME280;21185;50.978;13.720;2022-07-04T00:13:51;98213.22;;;24.25;45.67
34979;BME280;21185;50.978;13.720;2022-07-04T00:18:53;98212.66;;;24.22;45.69
34979;BME280;21185;50.978;13.720;2022-07-04T00:23:55;98213.66;;;24.16;45.20
34979;BME280;21185;50.978;13.720;2022-07-04T00:28:57;98223.41;;;24.11;45.55
34979;BME280;21185;50.978;13.720;2022-07-04T00:33:59;98223.63;;;24.04;45.60
34979;BME280;21185;50.978;13.720;2022-07-04T00:39:02;98229.91;;;23.98;45.24
34979;BME280;21185;50.978;13.720;2022-07-04T00:44:06;98234.84;;;23.89;45.21
34979;BME280;21185;50.978;13.720;2022-07-04T00:49:15;98231.34;;;23.84;45.60
34979;BME280;21185;50.978;13.720;2022-07-04T00:54:18;98234.19;;;23.77;45.55
34979;BME280;21185;50.978;13.720;2022-07-04T00:59:22;98246.84;;;23.70;45.58
34979;BME280;21185;50.978;13.720;2022-07-04T01:04:24;98259.78;;;23.67;45.48
34979;BME280;21185;50.978;13.720;2022-07-04T01:09:26;98272.16;;;23.61;45.50
34979;BME280;21185;50.978;13.720;2022-07-04T01:14:28;98278.44;;;23.55;45.32
34979;BME280;21185;50.978;13.720;2022-07-04T01:19:30;98283.63;;;23.50;45.87
34979;BME280;21185;50.978;13.720;2022-07-04T01:24:32;98296.81;;;23.45;45.62
34979;BME280;21185;50.978;13.720;2022-07-04T01:29:34;98299.88;;;23.37;45.47
34979;BME280;21185;50.978;13.720;2022-07-04T01:34:36;98316.72;;;23.31;45.92
34979;BME280;21185;50.978;13.720;2022-07-04T01:39:45;98322.75;;;23.26;45.96
34979;BME280;21185;50.978;13.720;2022-07-04T01:44:46;98333.03;;;23.22;45.58
34979;BME280;21185;50.978;13.720;2022-07-04T01:49:49;98327.66;;;23.17;45.93
34979;BME280;21185;50.978;13.720;2022-07-04T01:54:52;98343.78;;;23.16;46.14
34979;BME280;21185;50.978;13.720;2022-07-04T01:59:54;98348.75;;;23.12;46.11
34979;BME280;21185;50.978;13.720;2022-07-04T02:05:14;98352.91;;;23.08;46.29
34979;BME280;21185;50.978;13.720;2022-07-04T02:10:17;98359.16;;;23.02;46.43
34979;BME280;21185;50.978;13.720;2022-07-04T02:15:19;98366.94;;;22.92;46.42
34979;BME280;21185;50.978;13.720;2022-07-04T02:20:22;98378.72;;;22.84;46.19
34979;BME280;21185;50.978;13.720;2022-07-04T02:25:24;98384.13;;;22.78;46.73
34979;BME280;21185;50.978;13.720;2022-07-04T02:30:29;98390.38;;;22.72;47.03
34979;BME280;21185;50.978;13.720;2022-07-04T02:35:31;98389.94;;;22.63;47.02
34979;BME280;21185;50.978;13.720;2022-07-04T02:40:32;98397.56;;;22.59;46.73
34979;BME280;21185;50.978;13.720;2022-07-04T02:45:34;98396.66;;;22.54;47.23
34979;BME280;21185;50.978;13.720;2022-07-04T02:50:36;98397.03;;;22.46;47.20
34979;BME280;21185;50.978;13.720;2022-07-04T02:55:38;98404.88;;;22.41;47.35
34979;BME280;21185;50.978;13.720;2022-07-04T03:00:40;98415.09;;;22.37;47.40
34979;BME280;21185;50.978;13.720;2022-07-04T03:05:42;98412.94;;;22.34;47.62
34979;BME280;21185;50.978;13.720;2022-07-04T03:10:44;98407.53;;;22.29;47.66
34979;BME280;21185;50.978;13.720;2022-07-04T03:15:46;98404.78;;;22.24;47.77
34979;BME280;21185;50.978;13.720;2022-07-04T03:20:48;98412.97;;;22.22;47.73
34979;BME280;21185;50.978;13.720;2022-07-04T03:25:50;98408.81;;;22.26;47.89
34979;BME280;21185;50.978;13.720;2022-07-04T03:30:52;98424.44;;;22.28;47.54
34979;BME280;21185;50.978;13.720;2022-07-04T03:35:55;98428.13;;;22.27;47.70
34979;BME280;21185;50.978;13.720;2022-07-04T03:40:57;98428.13;;;22.27;48.03
34979;BME280;21185;50.978;13.720;2022-07-04T03:45:59;98439.50;;;22.27;48.20
34979;BME280;21185;50.978;13.720;2022-07-04T03:51:01;98438.47;;;22.28;47.98
34979;BME280;21185;50.978;13.720;2022-07-04T03:56:03;98445.81;;;22.26;48.21
34979;BME280;21185;50.978;13.720;2022-07-04T04:01:06;98447.88;;;22.24;48.66
34979;BME280;21185;50.978;13.720;2022-07-04T04:06:08;98445.47;;;22.23;48.58
34979;BME280;21185;50.978;13.720;2022-07-04T04:11:10;98453.66;;;22.21;48.93
34979;BME280;21185;50.978;13.720;2022-07-04T04:16:13;98451.47;;;22.18;48.93
34979;BME280;21185;50.978;13.720;2022-07-04T04:21:15;98448.94;;;22.12;49.64
34979;BME280;21185;50.978;13.720;2022-07-04T04:26:17;98457.09;;;22.10;49.43
34979;BME280;21185;50.978;13.720;2022-07-04T04:31:19;98461.59;;;22.10;49.44
34979;BME280;21185;50.978;13.720;2022-07-04T04:36:23;98471.47;;;22.14;49.83
34979;BME280;21185;50.978;13.720;2022-07-04T04:41:25;98476.06;;;22.19;50.06
34979;BME280;21185;50.978;13.720;2022-07-04T04:46:27;98493.88;;;22.23;49.85
34979;BME280;21185;50.978;13.720;2022-07-04T04:51:29;98493.75;;;22.30;50.13
34979;BME280;21185;50.978;13.720;2022-07-04T04:56:32;98497.28;;;22.36;50.30
34979;BME280;21185;50.978;13.720;2022-07-04T05:01:33;98500.16;;;22.34;50.64
34979;BME280;21185;50.978;13.720;2022-07-04T05:06:44;98506.84;;;22.37;50.79
34979;BME280;21185;50.978;13.720;2022-07-04T05:11:46;98507.16;;;22.40;51.31
34979;BME280;21185;50.978;13.720;2022-07-04T05:16:49;98512.81;;;22.32;51.57
34979;BME280;21185;50.978;13.720;2022-07-04T05:21:51;98519.50;;;22.23;52.10
34979;BME280;21185;50.978;13.720;2022-07-04T05:26:54;98519.16;;;22.19;52.47
34979;BME280;21185;50.978;13.720;2022-07-04T05:31:59;98527.75;;;22.15;52.94
34979;BME280;21185;50.978;13.720;2022-07-04T05:37:03;98534.09;;;22.14;53.05
34979;BME280;21185;50.978;13.720;2022-07-04T05:42:05;98531.44;;;22.14;53.62
34979;BME280;21185;50.978;13.720;2022-07-04T05:47:07;98538.91;;;22.17;53.75
34979;BME280;21185;50.978;13.720;2022-07-04T05:52:09;98537.06;;;22.29;53.52
34979;BME280;21185;50.978;13.720;2022-07-04T05:57:11;98532.09;;;22.44;53.66
34979;BME280;21185;50.978;13.720;2022-07-04T06:02:13;98539.13;;;22.50;53.80
34979;BME280;21185;50.978;13.720;2022-07-04T06:07:17;98530.81;;;22.58;53.79
34979;BME280;21185;50.978;13.720;2022-07-04T06:12:20;98532.06;;;22.68;53.65
34979;BME280;21185;50.978;13.720;2022-07-04T06:17:22;98547.81;;;22.74;53.75
34979;BME280;21185;50.978;13.720;2022-07-04T06:22:24;98547.56;;;22.87;53.81
34979;BME280;21185;50.978;13.720;2022-07-04T06:27:27;98561.91;;;23.03;53.65
34979;BME280;21185;50.978;13.720;2022-07-04T06:32:47;98565.13;;;23.05;54.03
34979;BME280;21185;50.978;13.720;2022-07-04T06:37:49;98565.22;;;23.10;53.38
34979;BME280;21185;50.978;13.720;2022-07-04T06:42:53;98557.16;;;23.17;53.47
34979;BME280;21185;50.978;13.720;2022-07-04T06:47:55;98563.56;;;23.21;53.41
34979;BME280;21185;50.978;13.720;2022-07-04T06:53:01;98551.31;;;23.32;53.23
34979;BME280;21185;50.978;13.720;2022-07-04T06:58:04;98551.03;;;23.45;52.68
34979;BME280;21185;50.978;13.720;2022-07-04T07:03:07;98551.69;;;23.52;52.70
34979;BME280;21185;50.978;13.720;2022-07-04T07:08:09;98545.63;;;23.68;52.22
34979;BME280;21185;50.978;13.720;2022-07-04T07:13:12;98543.72;;;23.80;52.16
34979;BME280;21185;50.978;13.720;2022-07-04T07:18:14;98559.44;;;23.87;52.14
34979;BME280;21185;50.978;13.720;2022-07-04T07:23:16;98557.69;;;23.93;51.96
34979;BME280;21185;50.978;13.720;2022-07-04T07:28:18;98553.91;;;24.05;51.81
34979;BME280;21185;50.978;13.720;2022-07-04T07:33:20;98539.81;;;24.21;51.73
34979;BME280;21185;50.978;13.720;2022-07-04T07:38:22;98545.88;;;24.34;51.62
34979;BME280;21185;50.978;13.720;2022-07-04T07:43:24;98548.66;;;24.44;51.33
34979;BME280;21185;50.978;13.720;2022-07-04T07:48:26;98551.63;;;24.47;50.74
34979;BME280;21185;50.978;13.720;2022-07-04T07:53:29;98555.63;;;24.50;50.64
34979;BME280;21185;50.978;13.720;2022-07-04T07:58:31;98553.78;;;24.50;50.67
34979;BME280;21185;50.978;13.720;2022-07-04T08:03:33;98552.38;;;24.65;50.66
34979;BME280;21185;50.978;13.720;2022-07-04T08:08:54;98542.75;;;24.80;50.63
34979;BME280;21185;50.978;13.720;2022-07-04T08:13:56;98535.78;;;24.96;50.40
34979;BME280;21185;50.978;13.720;2022-07-04T08:18:59;98541.47;;;25.05;50.15
34979;BME280;21185;50.978;13.720;2022-07-04T08:24:01;98544.47;;;25.13;49.72
34979;BME280;21185;50.978;13.720;2022-07-04T08:29:20;98540.69;;;25.31;49.60
34979;BME280;21185;50.978;13.720;2022-07-04T08:34:22;98542.59;;;25.36;49.31
34979;BME280;21185;50.978;13.720;2022-07-04T08:39:24;98541.59;;;25.42;49.13
34979;BME280;21185;50.978;13.720;2022-07-04T08:44:27;98538.63;;;25.38;48.45
34979;BME280;21185;50.978;13.720;2022-07-04T08:49:30;98533.97;;;25.50;48.58
34979;BME280;21185;50.978;13.720;2022-07-04T08:54:35;98530.69;;;25.43;48.39
34979;BME280;21185;50.978;13.720;2022-07-04T08:59:59;98545.03;;;25.42;48.40
34979;BME280;21185;50.978;13.720;2022-07-04T09:05:01;98543.22;;;25.48;48.06
34979;BME280;21185;50.978;13.720;2022-07-04T09:10:04;98537.50;;;25.61;48.18
34979;BME280;21185;50.978;13.720;2022-07-04T09:15:07;98531.47;;;25.66;48.26
34979;BME280;21185;50.978;13.720;2022-07-04T09:20:20;98533.94;;;25.77;47.55
34979;BME280;21185;50.978;13.720;2022-07-04T09:25:25;98532.63;;;25.80;47.99
34979;BME280;21185;50.978;13.720;2022-07-04T09:30:27;98532.09;;;25.78;47.45
34979;BME280;21185;50.978;13.720;2022-07-04T09:35:31;98544.88;;;25.81;46.97
34979;BME280;21185;50.978;13.720;2022-07-04T09:40:37;98551.41;;;25.68;46.90
34979;BME280;21185;50.978;13.720;2022-07-04T09:45:59;98540.91;;;25.84;47.04
34979;BME280;21185;50.978;13.720;2022-07-04T09:51:05;98549.91;;;25.77;46.52
34979;BME280;21185;50.978;13.720;2022-07-04T09:56:07;98555.06;;;25.62;46.46
34979;BME280;21185;50.978;13.720;2022-07-04T10:01:09;98545.59;;;25.71;46.40
34979;BME280;21185;50.978;13.720;2022-07-04T10:06:13;98530.81;;;25.86;46.16
34979;BME280;21185;50.978;13.720;2022-07-04T10:11:17;98530.97;;;26.11;46.43
34979;BME280;21185;50.978;13.720;2022-07-04T10:16:21;98525.91;;;26.09;45.74
34979;BME280;21185;50.978;13.720;2022-07-04T10:21:24;98519.34;;;26.22;45.66
34979;BME280;21185;50.978;13.720;2022-07-04T10:26:27;98506.16;;;26.37;45.56
34979;BME280;21185;50.978;13.720;2022-07-04T10:31:31;98501.97;;;26.57;45.44
34979;BME280;21185;50.978;13.720;2022-07-04T10:36:35;98491.94;;;26.79;45.71
34979;BME280;21185;50.978;13.720;2022-07-04T10:41:56;98483.94;;;26.79;44.44
34979;BME280;21185;50.978;13.720;2022-07-04T10:46:59;98497.75;;;26.66;44.57
34979;BME280;21185;50.978;13.720;2022-07-04T10:52:12;98479.34;;;26.54;44.08
34979;BME280;21185;50.978;13.720;2022-07-04T11:02:25;98478.63;;;26.74;43.92
34979;BME280;21185;50.978;13.720;2022-07-04T11:12:32;98478.06;;;26.72;43.50
34979;BME280;21185;50.978;13.720;2022-07-04T11:17:37;98470.13;;;26.92;43.68
34979;BME280;21185;50.978;13.720;2022-07-04T11:22:40;98477.66;;;27.05;43.80
34979;BME280;21185;50.978;13.720;2022-07-04T11:27:43;98472.34;;;27.16;43.47
34979;BME280;21185;50.978;13.720;2022-07-04T11:32:46;98473.69;;;27.23;43.50
34979;BME280;21185;50.978;13.720;2022-07-04T11:37:56;98469.16;;;27.29;43.26
34979;BME280;21185;50.978;13.720;2022-07-04T11:43:07;98470.50;;;27.36;43.20
34979;BME280;21185;50.978;13.720;2022-07-04T11:48:28;98466.75;;;27.37;42.98
34979;BME280;21185;50.978;13.720;2022-07-04T11:53:31;98464.09;;;27.37;43.04
34979;BME280;21185;50.978;13.720;2022-07-04T11:58:41;98464.38;;;27.36;42.51
34979;BME280;21185;50.978;13.720;2022-07-04T12:03:45;98472.34;;;27.31;42.70
34979;BME280;21185;50.978;13.720;2022-07-04T12:08:48;98466.22;;;27.10;42.79
34979;BME280;21185;50.978;13.720;2022-07-04T12:13:51;98458.22;;;27.15;42.87
34979;BME280;21185;50.978;13.720;2022-07-04T12:18:57;98454.78;;;27.30;42.42
34979;BME280;21185;50.978;13.720;2022-07-04T12:24:00;98456.38;;;27.51;42.69
34979;BME280;21185;50.978;13.720;2022-07-04T12:29:06;98456.09;;;27.48;42.48
34979;BME280;21185;50.978;13.720;2022-07-04T12:34:16;98448.13;;;27.42;42.30
34979;BME280;21185;50.978;13.720;2022-07-04T12:39:33;98437.72;;;27.41;42.17
34979;BME280;21185;50.978;13.720;2022-07-04T12:44:38;98447.56;;;27.46;42.23
34979;BME280;21185;50.978;13.720;2022-07-04T12:49:45;98439.84;;;27.34;42.63
34979;BME280;21185;50.978;13.720;2022-07-04T12:55:14;98435.84;;;27.47;42.46
34979;BME280;21185;50.978;13.720;2022-07-04T13:00:17;98441.47;;;27.60;42.33
34979;BME280;21185;50.978;13.720;2022-07-04T13:05:38;98439.59;;;27.71;42.14
34979;BME280;21185;50.978;13.720;2022-07-04T13:10:41;98444.13;;;27.70;42.05
34979;BME280;21185;50.978;13.720;2022-07-04T13:15:44;98443.34;;;27.60;41.76
34979;BME280;21185;50.978;13.720;2022-07-04T13:20:47;98438.25;;;27.48;42.05
34979;BME280;21185;50.978;13.720;2022-07-04T13:25:50;98436.38;;;27.38;42.03
34979;BME280;21185;50.978;13.720;2022-07-04T13:30:53;98448.66;;;27.34;41.97
34979;BME280;21185;50.978;13.720;2022-07-04T13:35:56;98450.50;;;27.34;42.13
34979;BME280;21185;50.978;13.720;2022-07-04T13:40:59;98439.59;;;27.30;42.21
34979;BME280;21185;50.978;13.720;2022-07-04T13:46:02;98439.31;;;27.32;41.86
34979;BME280;21185;50.978;13.720;2022-07-04T13:51:06;98430.25;;;27.48;41.37
34979;BME280;21185;50.978;13.720;2022-07-04T13:56:09;98432.13;;;27.73;41.13
34979;BME280;21185;50.978;13.720;2022-07-04T14:01:11;98424.91;;;27.79;40.47
34979;BME280;21185;50.978;13.720;2022-07-04T14:06:16;98423.59;;;27.76;40.38
34979;BME280;21185;50.978;13.720;2022-07-04T14:11:19;98424.06;;;27.98;40.30
34979;BME280;21185;50.978;13.720;2022-07-04T14:16:22;98417.34;;;28.11;40.04
34979;BME280;21185;50.978;13.720;2022-07-04T14:21:26;98408.53;;;28.16;39.33
34979;BME280;21185;50.978;13.720;2022-07-04T14:26:28;98407.72;;;28.25;39.33
34979;BME280;21185;50.978;13.720;2022-07-04T14:31:31;98405.53;;;28.37;39.26
34979;BME280;21185;50.978;13.720;2022-07-04T14:36:35;98404.69;;;28.47;39.35
34979;BME280;21185;50.978;13.720;2022-07-04T14:41:37;98402.53;;;28.49;39.18
34979;BME280;21185;50.978;13.720;2022-07-04T14:46:40;98395.91;;;28.42;39.28
34979;BME280;21185;50.978;13.720;2022-07-04T14:51:45;98395.44;;;28.29;39.04
34979;BME280;21185;50.978;13.720;2022-07-04T14:56:47;98400.81;;;28.14;39.27
34979;BME280;21185;50.978;13.720;2022-07-04T15:01:50;98398.66;;;28.16;39.00
34979;BME280;21185;50.978;13.720;2022-07-04T15:06:57;98389.03;;;28.20;38.57
34979;BME280;21185;50.978;13.720;2022-07-04T15:11:59;98385.28;;;28.21;38.56
34979;BME280;21185;50.978;13.720;2022-07-04T15:17:02;98388.00;;;28.11;38.34
34979;BME280;21185;50.978;13.720;2022-07-04T15:22:10;98386.47;;;27.95;38.58
34979;BME280;21185;50.978;13.720;2022-07-04T15:27:31;98374.25;;;27.73;38.55
34979;BME280;21185;50.978;13.720;2022-07-04T15:32:34;98367.34;;;27.67;38.93
34979;BME280;21185;50.978;13.720;2022-07-04T15:37:37;98371.63;;;27.68;38.76
34979;BME280;21185;50.978;13.720;2022-07-04T15:42:40;98371.34;;;27.65;38.47
34979;BME280;21185;50.978;13.720;2022-07-04T15:47:44;98376.16;;;27.63;37.99
34979;BME280;21185;50.978;13.720;2022-07-04T15:52:47;98381.75;;;27.61;37.71
34979;BME280;21185;50.978;13.720;2022-07-04T15:57:50;98378.03;;;27.62;37.68
34979;BME280;21185;50.978;13.720;2022-07-04T16:02:55;98373.19;;;27.59;37.31
34979;BME280;21185;50.978;13.720;2022-07-04T16:07:58;98371.59;;;27.58;37.26
34979;BME280;21185;50.978;13.720;2022-07-04T16:13:02;98369.47;;;27.55;37.01
34979;BME280;21185;50.978;13.720;2022-07-04T16:18:07;98379.34;;;27.50;36.64
34979;BME280;21185;50.978;13.720;2022-07-04T16:23:10;98368.97;;;27.48;36.49
34979;BME280;21185;50.978;13.720;2022-07-04T16:28:13;98368.44;;;27.46;36.06
34979;BME280;21185;50.978;13.720;2022-07-04T16:33:16;98360.19;;;27.42;35.93
34979;BME280;21185;50.978;13.720;2022-07-04T16:38:20;98353.53;;;27.35;35.82
34979;BME280;21185;50.978;13.720;2022-07-04T16:43:23;98354.06;;;27.32;35.99
34979;BME280;21185;50.978;13.720;2022-07-04T16:48:26;98357.78;;;27.31;35.84
34979;BME280;21185;50.978;13.720;2022-07-04T16:53:29;98344.47;;;27.31;35.76
34979;BME280;21185;50.978;13.720;2022-07-04T16:58:31;98358.59;;;27.26;36.12
34979;BME280;21185;50.978;13.720;2022-07-04T17:03:36;98351.94;;;27.19;36.09
34979;BME280;21185;50.978;13.720;2022-07-04T17:08:39;98367.41;;;27.12;36.14
34979;BME280;21185;50.978;13.720;2022-07-04T17:13:45;98362.34;;;27.05;35.81
34979;BME280;21185;50.978;13.720;2022-07-04T17:18:48;98380.19;;;27.04;35.89
34979;BME280;21185;50.978;13.720;2022-07-04T17:23:51;98379.91;;;27.01;35.60
34979;BME280;21185;50.978;13.720;2022-07-04T17:28:54;98374.28;;;26.92;36.05
34979;BME280;21185;50.978;13.720;2022-07-04T17:33:57;98373.75;;;26.80;36.42
34979;BME280;21185;50.978;13.720;2022-07-04T17:39:00;98381.72;;;26.70;36.74
34979;BME280;21185;50.978;13.720;2022-07-04T17:44:03;98385.69;;;26.62;36.65
34979;BME280;21185;50.978;13.720;2022-07-04T17:49:07;98391.53;;;26.64;36.26
34979;BME280;21185;50.978;13.720;2022-07-04T17:54:14;98387.81;;;26.65;36.58
34979;BME280;21185;50.978;13.720;2022-07-04T17:59:38;98388.09;;;26.64;36.44
34979;BME280;21185;50.978;13.720;2022-07-04T18:04:40;98390.22;;;26.62;36.60
34979;BME280;21185;50.978;13.720;2022-07-04T18:09:44;98381.69;;;26.55;36.44
34979;BME280;21185;50.978;13.720;2022-07-04T18:14:47;98376.34;;;26.44;37.23
34979;BME280;21185;50.978;13.720;2022-07-04T18:19:50;98379.75;;;26.35;37.51
34979;BME280;21185;50.978;13.720;2022-07-04T18:24:53;98382.63;;;26.23;37.92
34979;BME280;21185;50.978;13.720;2022-07-04T18:29:55;98383.13;;;26.15;37.80
34979;BME280;21185;50.978;13.720;2022-07-04T18:34:58;98389.19;;;26.05;37.89
34979;BME280;21185;50.978;13.720;2022-07-04T18:40:04;98387.84;;;25.93;38.66
34979;BME280;21185;50.978;13.720;2022-07-04T18:45:27;98397.63;;;25.82;38.87
34979;BME280;21185;50.978;13.720;2022-07-04T18:50:30;98395.16;;;25.70;39.26
34979;BME280;21185;50.978;13.720;2022-07-04T18:55:33;98396.13;;;25.59;40.27
34979;BME280;21185;50.978;13.720;2022-07-04T19:00:36;98405.63;;;25.50;40.47
34979;BME280;21185;50.978;13.720;2022-07-04T19:05:40;98407.16;;;25.41;40.47
34979;BME280;21185;50.978;13.720;2022-07-04T19:10:44;98412.94;;;25.33;40.89
34979;BME280;21185;50.978;13.720;2022-07-04T19:15:47;98421.38;;;25.25;40.89
34979;BME280;21185;50.978;13.720;2022-07-04T19:20:50;98420.78;;;25.17;40.82
34979;BME280;21185;50.978;13.720;2022-07-04T19:25:52;98422.59;;;25.12;41.16
34979;BME280;21185;50.978;13.720;2022-07-04T19:30:56;98432.38;;;25.06;40.94
34979;BME280;21185;50.978;13.720;2022-07-04T19:35:59;98445.59;;;25.01;40.76
34979;BME280;21185;50.978;13.720;2022-07-04T19:41:02;98447.38;;;24.96;40.89
34979;BME280;21185;50.978;13.720;2022-07-04T19:46:05;98447.56;;;24.89;40.88
34979;BME280;21185;50.978;13.720;2022-07-04T19:51:08;98465.03;;;24.85;41.37
34979;BME280;21185;50.978;13.720;2022-07-04T19:56:11;98468.69;;;24.79;41.47
34979;BME280;21185;50.978;13.720;2022-07-04T20:01:15;98483.50;;;24.75;41.27
34979;BME280;21185;50.978;13.720;2022-07-04T20:06:17;98485.06;;;24.71;41.29
34979;BME280;21185;50.978;13.720;2022-07-04T20:11:20;98498.00;;;24.67;41.86
34979;BME280;21185;50.978;13.720;2022-07-04T20:16:23;98491.59;;;24.63;41.25
34979;BME280;21185;50.978;13.720;2022-07-04T20:21:28;98493.94;;;24.60;41.43
34979;BME280;21185;50.978;13.720;2022-07-04T20:26:31;98502.88;;;24.53;41.27
34979;BME280;21185;50.978;13.720;2022-07-04T20:31:54;98501.28;;;24.52;41.75
34979;BME280;21185;50.978;13.720;2022-07-04T20:37:00;98500.47;;;24.52;41.47
34979;BME280;21185;50.978;13.720;2022-07-04T20:42:03;98511.28;;;24.45;41.44
34979;BME280;21185;50.978;13.720;2022-07-04T20:47:06;98516.50;;;24.40;41.65
34979;BME280;21185;50.978;13.720;2022-07-04T20:52:11;98513.31;;;24.38;41.24
34979;BME280;21185;50.978;13.720;2022-07-04T20:57:15;98522.00;;;24.34;41.19
34979;BME280;21185;50.978;13.720;2022-07-04T21:02:18;98528.59;;;24.31;40.91
34979;BME280;21185;50.978;13.720;2022-07-04T21:07:21;98532.19;;;24.25;41.24
34979;BME280;21185;50.978;13.720;2022-07-04T21:12:24;98533.16;;;24.19;41.12
34979;BME280;21185;50.978;13.720;2022-07-04T21:17:27;98546.34;;;24.14;41.34
34979;BME280;21185;50.978;13.720;2022-07-04T21:22:30;98557.44;;;24.11;41.05
34979;BME280;21185;50.978;13.720;2022-07-04T21:27:32;98560.09;;;24.11;40.92
34979;BME280;21185;50.978;13.720;2022-07-04T21:32:35;98556.38;;;24.12;40.88
34979;BME280;21185;50.978;13.720;2022-07-04T21:37:38;98553.75;;;24.12;40.72
34979;BME280;21185;50.978;13.720;2022-07-04T21:42:41;98561.63;;;24.07;40.88
34979;BME280;21185;50.978;13.720;2022-07-04T21:47:43;98561.06;;;24.05;40.60
34979;BME280;21185;50.978;13.720;2022-07-04T21:52:46;98562.66;;;24.06;40.69
34979;BME280;21185;50.978;13.720;2022-07-04T21:57:49;98558.41;;;24.05;40.66
34979;BME280;21185;50.978;13.720;2022-07-04T22:02:52;98569.00;;;24.05;40.53
34979;BME280;21185;50.978;13.720;2022-07-04T22:07:55;98569.00;;;24.05;40.45
34979;BME280;21185;50.978;13.720;2022-07-04T22:12:58;98558.66;;;24.03;40.03
34979;BME280;21185;50.978;13.720;2022-07-04T22:18:02;98562.81;;;23.99;40.16
34979;BME280;21185;50.978;13.720;2022-07-04T22:23:05;98569.91;;;23.94;40.10
34979;BME280;21185;50.978;13.720;2022-07-04T22:28:08;98562.34;;;23.85;40.55
34979;BME280;21185;50.978;13.720;2022-07-04T22:33:11;98565.38;;;23.77;40.50
34979;BME280;21185;50.978;13.720;2022-07-04T22:38:13;98558.41;;;23.71;40.35
34979;BME280;21185;50.978;13.720;2022-07-04T22:43:16;98556.94;;;23.64;40.39
34979;BME280;21185;50.978;13.720;2022-07-04T22:48:19;98555.81;;;23.60;40.70
34979;BME280;21185;50.978;13.720;2022-07-04T22:53:21;98563.19;;;23.57;40.50
34979;BME280;21185;50.978;13.720;2022-07-04T22:58:42;98573.13;;;23.50;40.63
34979;BME280;21185;50.978;13.720;2022-07-04T23:03:45;98571.97;;;23.46;40.62
34979;BME280;21185;50.978;13.720;2022-07-04T23:08:48;98576.16;;;23.42;40.72
34979;BME280;21185;50.978;13.720;2022-07-04T23:13:51;98577.41;;;23.40;40.67
34979;BME280;21185;50.978;13.720;2022-07-04T23:18:54;98574.22;;;23.38;40.59
34979;BME280;21185;50.978;13.720;2022-07-04T23:23:56;98574.44;;;23.36;40.97
34979;BME280;21185;50.978;13.720;2022-07-04T23:28:59;98560.88;;;23.33;40.68
34979;BME280;21185;50.978;13.720;2022-07-04T23:34:02;98569.28;;;23.30;40.70
34979;BME280;21185;50.978;13.720;2022-07-04T23:39:05;98563.91;;;23.24;41.24
34979;BME280;21185;50.978;13.720;2022-07-04T23:44:07;98571.75;;;23.19;40.80
34979;BME280;21185;50.978;13.720;2022-07-04T23:49:10;98574.31;;;23.14;41.18
34979;BME280;21185;50.978;13.720;2022-07-04T23:54:13;98574.78;;;23.11;41.10
34979;BME280;21185;50.978;13.720;2022-07-04T23:59:15;98573.41;;;23.09;41.25
